sensor_id;sensor_type;location;lat;lon;timestamp;P1;durP1;ratioP1;P2;durP2;ratioP2
46731;SDS011;32477;51.474;5.696;2022-08-03T00:01:37;10.75;;;3.60;;
46731;SDS011;32477;51.474;5.696;2022-08-03T00:04:05;15.55;;;4.30;;
46731;SDS011;32477;51.474;5.696;2022-08-03T00:06:31;8.50;;;3.75;;
46731;SDS011;32477;51.474;5.696;2022-08-03T00:08:57;16.50;;;4.15;;
46731;SDS011;32477;51.474;5.696;2022-08-03T00:11:23;9.43;;;4.32;;
46731;SDS011;32477;51.474;5.696;2022-08-03T00:13:49;13.32;;;5.22;;
46731;SDS011;32477;51.474;5.696;2022-08-03T00:16:15;16.63;;;4.75;;
46731;SDS011;32477;51.474;5.696;2022-08-03T00:18:40;19.30;;;5.22;;
46731;SDS011;32477;51.474;5.696;2022-08-03T00:21:06;25.70;;;6.85;;
46731;SDS011;32477;51.474;5.696;2022-08-03T00:23:32;12.30;;;4.72;;
46731;SDS011;32477;51.474;5.696;2022-08-03T00:25:58;15.25;;;4.60;;
46731;SDS011;32477;51.474;5.696;2022-08-03T00:28:24;14.52;;;4.95;;
46731;SDS011;32477;51.474;5.696;2022-08-03T00:30:50;14.73;;;5.28;;
46731;SDS011;32477;51.474;5.696;2022-08-03T00:33:15;9.73;;;4.20;;
46731;SDS011;32477;51.474;5.696;2022-08-03T00:35:41;9.75;;;4.90;;
46731;SDS011;32477;51.474;5.696;2022-08-03T00:38:07;14.27;;;5.20;;
46731;SDS011;32477;51.474;5.696;2022-08-03T00:40:33;16.58;;;4.68;;
46731;SDS011;32477;51.474;5.696;2022-08-03T00:43:00;10.82;;;5.40;;
46731;SDS011;32477;51.474;5.696;2022-08-03T00:45:28;15.35;;;5.50;;
46731;SDS011;32477;51.474;5.696;2022-08-03T00:47:56;14.13;;;5.10;;
46731;SDS011;32477;51.474;5.696;2022-08-03T00:50:22;17.77;;;5.00;;
46731;SDS011;32477;51.474;5.696;2022-08-03T00:52:51;18.90;;;5.72;;
46731;SDS011;32477;51.474;5.696;2022-08-03T00:55:18;19.02;;;5.05;;
46731;SDS011;32477;51.474;5.696;2022-08-03T00:57:44;14.02;;;5.13;;
46731;SDS011;32477;51.474;5.696;2022-08-03T01:00:11;20.02;;;5.95;;
46731;SDS011;32477;51.474;5.696;2022-08-03T01:02:39;10.73;;;5.78;;
46731;SDS011;32477;51.474;5.696;2022-08-03T01:05:05;21.98;;;6.07;;
46731;SDS011;32477;51.474;5.696;2022-08-03T01:07:36;21.15;;;6.50;;
46731;SDS011;32477;51.474;5.696;2022-08-03T01:12:51;15.32;;;7.60;;
46731;SDS011;32477;51.474;5.696;2022-08-03T01:18:25;16.10;;;6.65;;
46731;SDS011;32477;51.474;5.696;2022-08-03T01:21:00;17.42;;;6.78;;
46731;SDS011;32477;51.474;5.696;2022-08-03T01:31:20;13.68;;;6.53;;
46731;SDS011;32477;51.474;5.696;2022-08-03T01:33:52;20.35;;;7.00;;
46731;SDS011;32477;51.474;5.696;2022-08-03T01:36:23;21.27;;;7.28;;
46731;SDS011;32477;51.474;5.696;2022-08-03T01:38:54;13.98;;;6.63;;
46731;SDS011;32477;51.474;5.696;2022-08-03T01:41:24;19.55;;;8.50;;
46731;SDS011;32477;51.474;5.696;2022-08-03T01:43:54;15.30;;;6.85;;
46731;SDS011;32477;51.474;5.696;2022-08-03T01:46:22;16.88;;;7.22;;
46731;SDS011;32477;51.474;5.696;2022-08-03T01:48:49;17.20;;;7.05;;
46731;SDS011;32477;51.474;5.696;2022-08-03T01:51:17;17.67;;;7.47;;
46731;SDS011;32477;51.474;5.696;2022-08-03T01:53:44;14.00;;;7.05;;
46731;SDS011;32477;51.474;5.696;2022-08-03T01:56:12;18.05;;;7.53;;
46731;SDS011;32477;51.474;5.696;2022-08-03T01:58:39;17.13;;;7.15;;
46731;SDS011;32477;51.474;5.696;2022-08-03T02:01:07;14.43;;;6.57;;
46731;SDS011;32477;51.474;5.696;2022-08-03T02:03:36;20.23;;;7.68;;
46731;SDS011;32477;51.474;5.696;2022-08-03T02:06:04;17.20;;;7.28;;
46731;SDS011;32477;51.474;5.696;2022-08-03T02:08:33;15.90;;;7.00;;
46731;SDS011;32477;51.474;5.696;2022-08-03T02:10:59;24.10;;;7.30;;
46731;SDS011;32477;51.474;5.696;2022-08-03T02:13:26;15.57;;;6.68;;
46731;SDS011;32477;51.474;5.696;2022-08-03T02:15:54;15.75;;;7.40;;
46731;SDS011;32477;51.474;5.696;2022-08-03T02:18:20;23.58;;;7.88;;
46731;SDS011;32477;51.474;5.696;2022-08-03T02:20:47;16.58;;;6.63;;
46731;SDS011;32477;51.474;5.696;2022-08-03T02:23:14;16.10;;;7.13;;
46731;SDS011;32477;51.474;5.696;2022-08-03T02:25:42;21.55;;;7.03;;
46731;SDS011;32477;51.474;5.696;2022-08-03T02:28:13;16.55;;;7.45;;
46731;SDS011;32477;51.474;5.696;2022-08-03T02:30:42;15.85;;;7.07;;
46731;SDS011;32477;51.474;5.696;2022-08-03T02:33:11;15.80;;;6.90;;
46731;SDS011;32477;51.474;5.696;2022-08-03T02:35:42;23.08;;;7.13;;
46731;SDS011;32477;51.474;5.696;2022-08-03T02:38:09;12.15;;;7.03;;
46731;SDS011;32477;51.474;5.696;2022-08-03T02:40:36;15.90;;;8.45;;
46731;SDS011;32477;51.474;5.696;2022-08-03T02:43:06;20.67;;;8.70;;
46731;SDS011;32477;51.474;5.696;2022-08-03T02:45:34;19.55;;;7.88;;
46731;SDS011;32477;51.474;5.696;2022-08-03T02:48:02;15.75;;;7.53;;
46731;SDS011;32477;51.474;5.696;2022-08-03T02:50:30;15.35;;;7.30;;
46731;SDS011;32477;51.474;5.696;2022-08-03T02:52:59;18.92;;;7.97;;
46731;SDS011;32477;51.474;5.696;2022-08-03T02:55:26;17.33;;;7.78;;
46731;SDS011;32477;51.474;5.696;2022-08-03T02:57:53;21.88;;;7.40;;
46731;SDS011;32477;51.474;5.696;2022-08-03T03:00:20;17.63;;;7.95;;
46731;SDS011;32477;51.474;5.696;2022-08-03T03:02:46;16.95;;;7.63;;
46731;SDS011;32477;51.474;5.696;2022-08-03T03:05:12;19.35;;;8.43;;
46731;SDS011;32477;51.474;5.696;2022-08-03T03:07:39;21.15;;;7.72;;
46731;SDS011;32477;51.474;5.696;2022-08-03T03:10:06;12.23;;;7.43;;
46731;SDS011;32477;51.474;5.696;2022-08-03T03:12:34;15.93;;;7.65;;
46731;SDS011;32477;51.474;5.696;2022-08-03T03:15:03;18.88;;;7.93;;
46731;SDS011;32477;51.474;5.696;2022-08-03T03:17:29;12.02;;;6.50;;
46731;SDS011;32477;51.474;5.696;2022-08-03T03:19:57;15.68;;;7.82;;
46731;SDS011;32477;51.474;5.696;2022-08-03T03:22:23;19.80;;;7.68;;
46731;SDS011;32477;51.474;5.696;2022-08-03T03:24:49;16.10;;;8.05;;
46731;SDS011;32477;51.474;5.696;2022-08-03T03:27:16;18.17;;;8.02;;
46731;SDS011;32477;51.474;5.696;2022-08-03T03:29:42;16.45;;;7.70;;
46731;SDS011;32477;51.474;5.696;2022-08-03T03:32:08;15.73;;;7.90;;
46731;SDS011;32477;51.474;5.696;2022-08-03T03:34:34;18.75;;;7.15;;
46731;SDS011;32477;51.474;5.696;2022-08-03T03:37:01;24.10;;;7.43;;
46731;SDS011;32477;51.474;5.696;2022-08-03T03:39:26;19.67;;;7.40;;
46731;SDS011;32477;51.474;5.696;2022-08-03T03:41:52;17.35;;;7.30;;
46731;SDS011;32477;51.474;5.696;2022-08-03T03:44:18;17.27;;;7.15;;
46731;SDS011;32477;51.474;5.696;2022-08-03T03:46:43;22.55;;;7.47;;
46731;SDS011;32477;51.474;5.696;2022-08-03T03:49:09;20.25;;;8.30;;
46731;SDS011;32477;51.474;5.696;2022-08-03T03:51:35;15.20;;;6.78;;
46731;SDS011;32477;51.474;5.696;2022-08-03T03:54:02;17.05;;;6.25;;
46731;SDS011;32477;51.474;5.696;2022-08-03T03:56:30;21.00;;;6.35;;
46731;SDS011;32477;51.474;5.696;2022-08-03T03:58:57;12.35;;;6.05;;
46731;SDS011;32477;51.474;5.696;2022-08-03T04:01:22;15.30;;;6.45;;
46731;SDS011;32477;51.474;5.696;2022-08-03T04:03:48;26.20;;;6.68;;
46731;SDS011;32477;51.474;5.696;2022-08-03T04:06:14;18.75;;;6.93;;
46731;SDS011;32477;51.474;5.696;2022-08-03T04:08:59;20.15;;;7.07;;
46731;SDS011;32477;51.474;5.696;2022-08-03T04:11:51;16.95;;;6.63;;
46731;SDS011;32477;51.474;5.696;2022-08-03T04:14:22;14.35;;;6.35;;
46731;SDS011;32477;51.474;5.696;2022-08-03T04:16:52;26.15;;;8.05;;
46731;SDS011;32477;51.474;5.696;2022-08-03T04:19:29;13.20;;;6.30;;
46731;SDS011;32477;51.474;5.696;2022-08-03T04:21:58;16.42;;;6.55;;
46731;SDS011;32477;51.474;5.696;2022-08-03T04:24:29;30.88;;;6.57;;
46731;SDS011;32477;51.474;5.696;2022-08-03T04:26:59;14.52;;;6.85;;
46731;SDS011;32477;51.474;5.696;2022-08-03T04:29:28;13.60;;;6.57;;
46731;SDS011;32477;51.474;5.696;2022-08-03T04:31:57;9.90;;;5.20;;
46731;SDS011;32477;51.474;5.696;2022-08-03T04:34:24;12.32;;;6.32;;
46731;SDS011;32477;51.474;5.696;2022-08-03T04:36:51;14.25;;;7.60;;
46731;SDS011;32477;51.474;5.696;2022-08-03T04:39:27;17.45;;;6.68;;
46731;SDS011;32477;51.474;5.696;2022-08-03T04:41:57;19.25;;;6.57;;
46731;SDS011;32477;51.474;5.696;2022-08-03T04:44:25;16.55;;;6.85;;
46731;SDS011;32477;51.474;5.696;2022-08-03T04:46:52;17.55;;;6.15;;
46731;SDS011;32477;51.474;5.696;2022-08-03T04:49:20;17.90;;;5.82;;
46731;SDS011;32477;51.474;5.696;2022-08-03T04:51:46;21.20;;;7.20;;
46731;SDS011;32477;51.474;5.696;2022-08-03T04:54:13;15.63;;;5.90;;
46731;SDS011;32477;51.474;5.696;2022-08-03T04:56:40;17.05;;;5.57;;
46731;SDS011;32477;51.474;5.696;2022-08-03T04:59:06;14.68;;;5.88;;
46731;SDS011;32477;51.474;5.696;2022-08-03T05:01:33;15.88;;;5.68;;
46731;SDS011;32477;51.474;5.696;2022-08-03T05:03:58;16.00;;;5.95;;
46731;SDS011;32477;51.474;5.696;2022-08-03T05:06:24;20.92;;;5.95;;
46731;SDS011;32477;51.474;5.696;2022-08-03T05:08:50;10.85;;;5.32;;
46731;SDS011;32477;51.474;5.696;2022-08-03T05:11:16;13.60;;;5.55;;
46731;SDS011;32477;51.474;5.696;2022-08-03T05:13:42;14.13;;;5.40;;
46731;SDS011;32477;51.474;5.696;2022-08-03T05:16:08;17.23;;;5.18;;
46731;SDS011;32477;51.474;5.696;2022-08-03T05:18:34;16.95;;;5.43;;
46731;SDS011;32477;51.474;5.696;2022-08-03T05:21:00;10.15;;;5.00;;
46731;SDS011;32477;51.474;5.696;2022-08-03T05:23:26;16.52;;;5.93;;
46731;SDS011;32477;51.474;5.696;2022-08-03T05:25:51;21.45;;;6.03;;
46731;SDS011;32477;51.474;5.696;2022-08-03T05:28:17;15.85;;;6.38;;
46731;SDS011;32477;51.474;5.696;2022-08-03T05:30:43;13.65;;;5.97;;
46731;SDS011;32477;51.474;5.696;2022-08-03T05:33:09;15.15;;;6.35;;
46731;SDS011;32477;51.474;5.696;2022-08-03T05:35:35;14.50;;;6.25;;
46731;SDS011;32477;51.474;5.696;2022-08-03T05:38:03;17.48;;;7.22;;
46731;SDS011;32477;51.474;5.696;2022-08-03T05:40:29;20.75;;;7.20;;
46731;SDS011;32477;51.474;5.696;2022-08-03T05:42:55;25.75;;;7.15;;
46731;SDS011;32477;51.474;5.696;2022-08-03T05:45:21;14.27;;;6.28;;
46731;SDS011;32477;51.474;5.696;2022-08-03T05:47:47;13.90;;;6.22;;
46731;SDS011;32477;51.474;5.696;2022-08-03T05:50:17;27.13;;;6.15;;
46731;SDS011;32477;51.474;5.696;2022-08-03T05:52:43;13.35;;;5.05;;
46731;SDS011;32477;51.474;5.696;2022-08-03T05:55:10;11.02;;;4.97;;
46731;SDS011;32477;51.474;5.696;2022-08-03T05:57:36;13.75;;;4.63;;
46731;SDS011;32477;51.474;5.696;2022-08-03T06:00:06;7.10;;;3.63;;
46731;SDS011;32477;51.474;5.696;2022-08-03T06:02:33;7.03;;;3.90;;
46731;SDS011;32477;51.474;5.696;2022-08-03T06:04:59;10.55;;;4.20;;
46731;SDS011;32477;51.474;5.696;2022-08-03T06:07:25;13.20;;;3.83;;
46731;SDS011;32477;51.474;5.696;2022-08-03T06:09:51;10.52;;;3.42;;
46731;SDS011;32477;51.474;5.696;2022-08-03T06:12:16;10.95;;;3.67;;
46731;SDS011;32477;51.474;5.696;2022-08-03T06:14:42;9.23;;;3.45;;
46731;SDS011;32477;51.474;5.696;2022-08-03T06:17:07;9.82;;;3.65;;
46731;SDS011;32477;51.474;5.696;2022-08-03T06:19:33;13.70;;;3.80;;
46731;SDS011;32477;51.474;5.696;2022-08-03T06:21:59;22.88;;;4.10;;
46731;SDS011;32477;51.474;5.696;2022-08-03T06:24:24;8.63;;;4.55;;
46731;SDS011;32477;51.474;5.696;2022-08-03T06:26:50;13.82;;;3.42;;
46731;SDS011;32477;51.474;5.696;2022-08-03T06:29:15;14.65;;;3.03;;
46731;SDS011;32477;51.474;5.696;2022-08-03T06:31:41;4.93;;;2.28;;
46731;SDS011;32477;51.474;5.696;2022-08-03T06:34:07;12.45;;;3.05;;
46731;SDS011;32477;51.474;5.696;2022-08-03T06:36:32;10.65;;;2.65;;
46731;SDS011;32477;51.474;5.696;2022-08-03T06:38:58;10.65;;;2.17;;
46731;SDS011;32477;51.474;5.696;2022-08-03T06:41:25;9.18;;;1.95;;
46731;SDS011;32477;51.474;5.696;2022-08-03T06:43:51;11.60;;;2.92;;
46731;SDS011;32477;51.474;5.696;2022-08-03T06:46:17;5.05;;;2.20;;
46731;SDS011;32477;51.474;5.696;2022-08-03T06:48:42;10.80;;;2.20;;
46731;SDS011;32477;51.474;5.696;2022-08-03T06:51:08;8.93;;;2.45;;
46731;SDS011;32477;51.474;5.696;2022-08-03T06:53:34;16.30;;;2.65;;
46731;SDS011;32477;51.474;5.696;2022-08-03T06:56:00;9.70;;;2.40;;
46731;SDS011;32477;51.474;5.696;2022-08-03T06:58:25;20.67;;;3.03;;
46731;SDS011;32477;51.474;5.696;2022-08-03T07:00:51;8.05;;;2.47;;
46731;SDS011;32477;51.474;5.696;2022-08-03T07:03:17;17.90;;;2.55;;
46731;SDS011;32477;51.474;5.696;2022-08-03T07:05:43;5.35;;;2.15;;
46731;SDS011;32477;51.474;5.696;2022-08-03T07:08:12;12.48;;;1.75;;
46731;SDS011;32477;51.474;5.696;2022-08-03T07:10:38;12.45;;;2.15;;
46731;SDS011;32477;51.474;5.696;2022-08-03T07:13:03;10.40;;;1.70;;
46731;SDS011;32477;51.474;5.696;2022-08-03T07:15:29;8.60;;;2.45;;
46731;SDS011;32477;51.474;5.696;2022-08-03T07:17:55;10.90;;;2.13;;
46731;SDS011;32477;51.474;5.696;2022-08-03T07:20:21;8.90;;;1.45;;
46731;SDS011;32477;51.474;5.696;2022-08-03T07:22:47;5.00;;;1.77;;
46731;SDS011;32477;51.474;5.696;2022-08-03T07:25:12;7.22;;;2.00;;
46731;SDS011;32477;51.474;5.696;2022-08-03T07:27:41;6.75;;;2.05;;
46731;SDS011;32477;51.474;5.696;2022-08-03T07:30:08;12.38;;;1.90;;
46731;SDS011;32477;51.474;5.696;2022-08-03T07:32:33;9.05;;;2.03;;
46731;SDS011;32477;51.474;5.696;2022-08-03T07:34:59;7.30;;;1.50;;
46731;SDS011;32477;51.474;5.696;2022-08-03T07:37:25;6.10;;;1.48;;
46731;SDS011;32477;51.474;5.696;2022-08-03T07:39:50;14.73;;;1.98;;
46731;SDS011;32477;51.474;5.696;2022-08-03T07:42:16;7.20;;;1.60;;
46731;SDS011;32477;51.474;5.696;2022-08-03T07:44:42;10.48;;;1.85;;
46731;SDS011;32477;51.474;5.696;2022-08-03T07:47:08;14.35;;;1.88;;
46731;SDS011;32477;51.474;5.696;2022-08-03T07:49:37;12.00;;;2.03;;
46731;SDS011;32477;51.474;5.696;2022-08-03T07:52:03;9.25;;;1.90;;
46731;SDS011;32477;51.474;5.696;2022-08-03T07:54:48;11.90;;;2.22;;
46731;SDS011;32477;51.474;5.696;2022-08-03T07:57:13;11.13;;;2.38;;
46731;SDS011;32477;51.474;5.696;2022-08-03T07:59:39;13.48;;;1.90;;
46731;SDS011;32477;51.474;5.696;2022-08-03T08:02:05;12.70;;;1.95;;
46731;SDS011;32477;51.474;5.696;2022-08-03T08:04:31;13.68;;;1.80;;
46731;SDS011;32477;51.474;5.696;2022-08-03T08:06:56;10.68;;;1.60;;
46731;SDS011;32477;51.474;5.696;2022-08-03T08:09:22;7.85;;;1.90;;
46731;SDS011;32477;51.474;5.696;2022-08-03T08:11:48;5.18;;;2.25;;
46731;SDS011;32477;51.474;5.696;2022-08-03T08:14:14;17.92;;;1.80;;
46731;SDS011;32477;51.474;5.696;2022-08-03T08:16:39;20.45;;;2.00;;
46731;SDS011;32477;51.474;5.696;2022-08-03T08:19:05;16.30;;;1.77;;
46731;SDS011;32477;51.474;5.696;2022-08-03T08:21:31;11.52;;;1.83;;
46731;SDS011;32477;51.474;5.696;2022-08-03T08:23:56;12.25;;;1.45;;
46731;SDS011;32477;51.474;5.696;2022-08-03T08:26:22;9.38;;;2.22;;
46731;SDS011;32477;51.474;5.696;2022-08-03T08:28:47;8.00;;;1.92;;
46731;SDS011;32477;51.474;5.696;2022-08-03T08:31:13;12.48;;;2.30;;
46731;SDS011;32477;51.474;5.696;2022-08-03T08:33:39;9.65;;;1.70;;
46731;SDS011;32477;51.474;5.696;2022-08-03T08:36:04;7.93;;;1.65;;
46731;SDS011;32477;51.474;5.696;2022-08-03T08:38:30;7.70;;;2.08;;
46731;SDS011;32477;51.474;5.696;2022-08-03T08:40:55;8.15;;;1.80;;
46731;SDS011;32477;51.474;5.696;2022-08-03T08:43:21;14.73;;;1.95;;
46731;SDS011;32477;51.474;5.696;2022-08-03T08:45:48;8.05;;;1.73;;
46731;SDS011;32477;51.474;5.696;2022-08-03T08:48:16;8.77;;;1.90;;
46731;SDS011;32477;51.474;5.696;2022-08-03T08:50:46;6.45;;;1.67;;
46731;SDS011;32477;51.474;5.696;2022-08-03T08:53:13;18.83;;;2.38;;
46731;SDS011;32477;51.474;5.696;2022-08-03T08:55:39;9.38;;;1.55;;
46731;SDS011;32477;51.474;5.696;2022-08-03T08:58:06;12.43;;;1.65;;
46731;SDS011;32477;51.474;5.696;2022-08-03T09:00:34;12.02;;;1.55;;
46731;SDS011;32477;51.474;5.696;2022-08-03T09:03:00;7.07;;;1.50;;
46731;SDS011;32477;51.474;5.696;2022-08-03T09:05:26;9.82;;;1.50;;
46731;SDS011;32477;51.474;5.696;2022-08-03T09:07:51;4.30;;;1.23;;
46731;SDS011;32477;51.474;5.696;2022-08-03T09:10:17;9.45;;;1.17;;
46731;SDS011;32477;51.474;5.696;2022-08-03T09:12:46;8.57;;;1.50;;
46731;SDS011;32477;51.474;5.696;2022-08-03T09:15:16;8.60;;;1.98;;
46731;SDS011;32477;51.474;5.696;2022-08-03T09:17:42;10.05;;;1.85;;
46731;SDS011;32477;51.474;5.696;2022-08-03T09:20:08;13.20;;;1.70;;
46731;SDS011;32477;51.474;5.696;2022-08-03T09:22:34;11.57;;;1.55;;
46731;SDS011;32477;51.474;5.696;2022-08-03T09:25:04;11.43;;;2.45;;
46731;SDS011;32477;51.474;5.696;2022-08-03T09:27:45;6.22;;;1.45;;
46731;SDS011;32477;51.474;5.696;2022-08-03T09:30:14;9.20;;;1.98;;
46731;SDS011;32477;51.474;5.696;2022-08-03T09:32:41;11.50;;;1.58;;
46731;SDS011;32477;51.474;5.696;2022-08-03T09:35:09;8.05;;;1.50;;
46731;SDS011;32477;51.474;5.696;2022-08-03T09:37:37;8.65;;;1.75;;
46731;SDS011;32477;51.474;5.696;2022-08-03T09:40:02;6.18;;;1.35;;
46731;SDS011;32477;51.474;5.696;2022-08-03T09:42:29;13.77;;;1.77;;
46731;SDS011;32477;51.474;5.696;2022-08-03T09:44:55;8.57;;;1.88;;
46731;SDS011;32477;51.474;5.696;2022-08-03T09:47:29;10.75;;;1.60;;
46731;SDS011;32477;51.474;5.696;2022-08-03T09:50:07;11.95;;;1.88;;
46731;SDS011;32477;51.474;5.696;2022-08-03T09:52:34;7.85;;;1.70;;
46731;SDS011;32477;51.474;5.696;2022-08-03T09:55:08;5.97;;;1.50;;
46731;SDS011;32477;51.474;5.696;2022-08-03T09:57:38;10.07;;;1.60;;
46731;SDS011;32477;51.474;5.696;2022-08-03T10:00:11;14.07;;;1.73;;
46731;SDS011;32477;51.474;5.696;2022-08-03T10:02:40;15.50;;;2.05;;
46731;SDS011;32477;51.474;5.696;2022-08-03T10:05:08;19.63;;;3.17;;
46731;SDS011;32477;51.474;5.696;2022-08-03T10:07:43;13.73;;;2.35;;
46731;SDS011;32477;51.474;5.696;2022-08-03T10:10:11;14.93;;;2.25;;
46731;SDS011;32477;51.474;5.696;2022-08-03T10:12:37;9.20;;;2.08;;
46731;SDS011;32477;51.474;5.696;2022-08-03T10:15:04;11.45;;;1.75;;
46731;SDS011;32477;51.474;5.696;2022-08-03T10:17:30;20.63;;;2.42;;
46731;SDS011;32477;51.474;5.696;2022-08-03T10:19:56;11.52;;;1.95;;
46731;SDS011;32477;51.474;5.696;2022-08-03T10:22:27;8.30;;;1.90;;
46731;SDS011;32477;51.474;5.696;2022-08-03T10:24:58;15.02;;;1.73;;
46731;SDS011;32477;51.474;5.696;2022-08-03T10:27:25;15.07;;;2.10;;
46731;SDS011;32477;51.474;5.696;2022-08-03T10:29:55;13.88;;;2.30;;
46731;SDS011;32477;51.474;5.696;2022-08-03T10:32:27;19.05;;;2.40;;
46731;SDS011;32477;51.474;5.696;2022-08-03T10:35:05;15.10;;;3.05;;
46731;SDS011;32477;51.474;5.696;2022-08-03T10:37:42;17.20;;;2.60;;
46731;SDS011;32477;51.474;5.696;2022-08-03T10:40:13;11.70;;;2.40;;
46731;SDS011;32477;51.474;5.696;2022-08-03T10:42:41;13.93;;;2.78;;
46731;SDS011;32477;51.474;5.696;2022-08-03T10:45:11;11.23;;;2.58;;
46731;SDS011;32477;51.474;5.696;2022-08-03T10:47:41;16.35;;;2.80;;
46731;SDS011;32477;51.474;5.696;2022-08-03T10:50:08;15.38;;;2.25;;
46731;SDS011;32477;51.474;5.696;2022-08-03T10:52:35;12.77;;;2.35;;
46731;SDS011;32477;51.474;5.696;2022-08-03T10:55:00;21.35;;;2.97;;
46731;SDS011;32477;51.474;5.696;2022-08-03T10:57:53;29.13;;;3.85;;
46731;SDS011;32477;51.474;5.696;2022-08-03T11:00:20;25.67;;;3.08;;
46731;SDS011;32477;51.474;5.696;2022-08-03T11:05:46;14.85;;;2.83;;
46731;SDS011;32477;51.474;5.696;2022-08-03T11:10:57;11.48;;;1.95;;
46731;SDS011;32477;51.474;5.696;2022-08-03T11:13:25;17.23;;;2.40;;
46731;SDS011;32477;51.474;5.696;2022-08-03T11:15:55;14.85;;;2.90;;
46731;SDS011;32477;51.474;5.696;2022-08-03T11:18:23;19.45;;;2.45;;
46731;SDS011;32477;51.474;5.696;2022-08-03T11:20:52;13.07;;;2.53;;
46731;SDS011;32477;51.474;5.696;2022-08-03T11:28:35;10.52;;;1.33;;
46731;SDS011;32477;51.474;5.696;2022-08-03T11:34:07;13.77;;;2.78;;
46731;SDS011;32477;51.474;5.696;2022-08-03T11:47:24;13.02;;;1.52;;
46731;SDS011;32477;51.474;5.696;2022-08-03T11:49:55;9.43;;;2.08;;
46731;SDS011;32477;51.474;5.696;2022-08-03T11:52:24;10.68;;;1.50;;
46731;SDS011;32477;51.474;5.696;2022-08-03T11:54:50;10.18;;;2.08;;
46731;SDS011;32477;51.474;5.696;2022-08-03T11:57:29;15.13;;;2.10;;
46731;SDS011;32477;51.474;5.696;2022-08-03T11:59:56;13.23;;;1.70;;
46731;SDS011;32477;51.474;5.696;2022-08-03T12:02:22;6.60;;;1.52;;
46731;SDS011;32477;51.474;5.696;2022-08-03T12:04:55;8.23;;;2.08;;
46731;SDS011;32477;51.474;5.696;2022-08-03T12:07:23;13.77;;;2.05;;
46731;SDS011;32477;51.474;5.696;2022-08-03T12:10:07;5.70;;;1.45;;
46731;SDS011;32477;51.474;5.696;2022-08-03T12:12:37;7.82;;;2.13;;
46731;SDS011;32477;51.474;5.696;2022-08-03T12:15:04;8.40;;;1.67;;
46731;SDS011;32477;51.474;5.696;2022-08-03T12:17:37;11.15;;;1.90;;
46731;SDS011;32477;51.474;5.696;2022-08-03T12:20:05;6.82;;;1.73;;
46731;SDS011;32477;51.474;5.696;2022-08-03T12:22:36;11.40;;;1.65;;
46731;SDS011;32477;51.474;5.696;2022-08-03T12:25:04;7.40;;;1.75;;
46731;SDS011;32477;51.474;5.696;2022-08-03T12:27:30;7.88;;;2.28;;
46731;SDS011;32477;51.474;5.696;2022-08-03T12:29:56;14.45;;;2.67;;
46731;SDS011;32477;51.474;5.696;2022-08-03T12:32:23;8.65;;;1.50;;
46731;SDS011;32477;51.474;5.696;2022-08-03T12:34:50;8.27;;;1.52;;
46731;SDS011;32477;51.474;5.696;2022-08-03T12:37:19;8.85;;;1.73;;
46731;SDS011;32477;51.474;5.696;2022-08-03T12:39:53;8.93;;;1.67;;
46731;SDS011;32477;51.474;5.696;2022-08-03T12:42:28;7.30;;;2.08;;
46731;SDS011;32477;51.474;5.696;2022-08-03T12:44:55;12.02;;;1.80;;
46731;SDS011;32477;51.474;5.696;2022-08-03T12:47:20;16.88;;;2.10;;
46731;SDS011;32477;51.474;5.696;2022-08-03T12:49:52;13.93;;;2.00;;
46731;SDS011;32477;51.474;5.696;2022-08-03T12:52:19;14.35;;;1.77;;
46731;SDS011;32477;51.474;5.696;2022-08-03T12:54:55;7.07;;;2.17;;
46731;SDS011;32477;51.474;5.696;2022-08-03T12:57:22;14.02;;;1.67;;
46731;SDS011;32477;51.474;5.696;2022-08-03T12:59:49;3.75;;;1.63;;
46731;SDS011;32477;51.474;5.696;2022-08-03T13:04:51;11.95;;;1.88;;
46731;SDS011;32477;51.474;5.696;2022-08-03T13:07:18;4.38;;;1.70;;
46731;SDS011;32477;51.474;5.696;2022-08-03T13:09:45;7.47;;;2.35;;
46731;SDS011;32477;51.474;5.696;2022-08-03T13:12:12;7.60;;;1.48;;
46731;SDS011;32477;51.474;5.696;2022-08-03T13:14:39;9.23;;;1.83;;
46731;SDS011;32477;51.474;5.696;2022-08-03T13:17:06;7.93;;;1.48;;
46731;SDS011;32477;51.474;5.696;2022-08-03T13:19:33;6.85;;;1.52;;
46731;SDS011;32477;51.474;5.696;2022-08-03T13:22:12;9.32;;;1.75;;
46731;SDS011;32477;51.474;5.696;2022-08-03T13:24:45;9.68;;;1.90;;
46731;SDS011;32477;51.474;5.696;2022-08-03T13:27:12;8.68;;;1.90;;
46731;SDS011;32477;51.474;5.696;2022-08-03T13:29:39;7.70;;;1.60;;
46731;SDS011;32477;51.474;5.696;2022-08-03T13:32:06;8.90;;;2.05;;
46731;SDS011;32477;51.474;5.696;2022-08-03T13:34:32;5.65;;;1.52;;
46731;SDS011;32477;51.474;5.696;2022-08-03T13:36:58;6.68;;;1.17;;
46731;SDS011;32477;51.474;5.696;2022-08-03T13:39:23;9.38;;;2.10;;
46731;SDS011;32477;51.474;5.696;2022-08-03T13:41:49;14.18;;;1.77;;
46731;SDS011;32477;51.474;5.696;2022-08-03T13:44:15;12.13;;;1.33;;
46731;SDS011;32477;51.474;5.696;2022-08-03T13:46:42;7.70;;;1.70;;
46731;SDS011;32477;51.474;5.696;2022-08-03T13:49:08;6.95;;;1.60;;
46731;SDS011;32477;51.474;5.696;2022-08-03T13:51:34;7.72;;;1.30;;
46731;SDS011;32477;51.474;5.696;2022-08-03T13:53:59;14.27;;;1.60;;
46731;SDS011;32477;51.474;5.696;2022-08-03T13:56:25;8.75;;;1.40;;
46731;SDS011;32477;51.474;5.696;2022-08-03T13:58:52;6.63;;;2.03;;
46731;SDS011;32477;51.474;5.696;2022-08-03T14:01:18;9.90;;;1.55;;
46731;SDS011;32477;51.474;5.696;2022-08-03T14:03:43;10.57;;;1.45;;
46731;SDS011;32477;51.474;5.696;2022-08-03T14:06:10;9.27;;;1.88;;
46731;SDS011;32477;51.474;5.696;2022-08-03T14:08:35;10.18;;;1.60;;
46731;SDS011;32477;51.474;5.696;2022-08-03T14:11:02;9.30;;;1.75;;
46731;SDS011;32477;51.474;5.696;2022-08-03T14:13:27;11.60;;;1.38;;
46731;SDS011;32477;51.474;5.696;2022-08-03T14:15:53;11.60;;;1.77;;
46731;SDS011;32477;51.474;5.696;2022-08-03T14:18:20;13.25;;;2.00;;
46731;SDS011;32477;51.474;5.696;2022-08-03T14:20:46;5.25;;;1.33;;
46731;SDS011;32477;51.474;5.696;2022-08-03T14:23:12;8.93;;;1.52;;
46731;SDS011;32477;51.474;5.696;2022-08-03T14:25:38;5.97;;;1.42;;
46731;SDS011;32477;51.474;5.696;2022-08-03T14:28:05;8.73;;;2.08;;
46731;SDS011;32477;51.474;5.696;2022-08-03T14:30:31;9.98;;;1.60;;
46731;SDS011;32477;51.474;5.696;2022-08-03T14:32:57;4.32;;;1.20;;
46731;SDS011;32477;51.474;5.696;2022-08-03T14:35:23;6.40;;;1.40;;
46731;SDS011;32477;51.474;5.696;2022-08-03T14:37:49;5.15;;;1.70;;
46731;SDS011;32477;51.474;5.696;2022-08-03T14:40:15;7.97;;;1.73;;
46731;SDS011;32477;51.474;5.696;2022-08-03T14:42:41;6.35;;;1.63;;
46731;SDS011;32477;51.474;5.696;2022-08-03T14:45:07;6.75;;;1.90;;
46731;SDS011;32477;51.474;5.696;2022-08-03T14:47:33;8.38;;;1.50;;
46731;SDS011;32477;51.474;5.696;2022-08-03T14:49:58;5.55;;;1.40;;
46731;SDS011;32477;51.474;5.696;2022-08-03T14:52:24;9.48;;;3.15;;
46731;SDS011;32477;51.474;5.696;2022-08-03T14:54:50;12.75;;;2.25;;
46731;SDS011;32477;51.474;5.696;2022-08-03T14:57:15;10.73;;;1.52;;
46731;SDS011;32477;51.474;5.696;2022-08-03T14:59:41;6.75;;;1.48;;
46731;SDS011;32477;51.474;5.696;2022-08-03T15:02:06;12.90;;;1.77;;
46731;SDS011;32477;51.474;5.696;2022-08-03T15:04:32;3.08;;;1.20;;
46731;SDS011;32477;51.474;5.696;2022-08-03T15:06:57;5.20;;;1.50;;
46731;SDS011;32477;51.474;5.696;2022-08-03T15:09:23;11.25;;;2.17;;
46731;SDS011;32477;51.474;5.696;2022-08-03T15:11:49;10.93;;;1.67;;
46731;SDS011;32477;51.474;5.696;2022-08-03T15:14:14;3.22;;;1.50;;
46731;SDS011;32477;51.474;5.696;2022-08-03T15:16:40;4.50;;;1.35;;
46731;SDS011;32477;51.474;5.696;2022-08-03T15:19:06;8.55;;;1.70;;
46731;SDS011;32477;51.474;5.696;2022-08-03T15:21:31;7.20;;;1.58;;